Time;durP1;ratioP1;P1;durP2;ratioP2;P2;SDS_P1;SDS_P2;PMS_P1;PMS_P2;Temp;Humidity;BMP_temperature;BMP_pressure;BME280_temperature;BME280_humidity;BME280_pressure;Samples;Min_cycle;Max_cycle;Signal;HPM_P1;HPM_P2
2023/04/06 00:00:04;;;;;;;24.58;21.35;;;;;;;0.71;92.66;101714.63;5035823;28;20018;-57
2023/04/06 00:02:29;;;;;;;24.20;20.63;;;;;;;0.72;92.47;101713.88;5035576;28;20041;-56
2023/04/06 00:04:54;;;;;;;24.27;20.23;;;;;;;0.71;92.67;101712.06;5035456;28;20032;-56
2023/04/06 00:07:20;;;;;;;22.60;19.25;;;;;;;0.56;92.65;101704.97;5035239;28;20017;-57
2023/04/06 00:09:46;;;;;;;22.17;19.27;;;;;;;0.57;93.55;101711.81;5035949;28;20469;-56
2023/04/06 00:12:12;;;;;;;22.05;19.23;;;;;;;0.56;93.05;101707.50;5035155;28;20108;-57
2023/04/06 00:14:37;;;;;;;23.80;18.58;;;;;;;0.49;93.70;101705.22;5035353;28;20029;-57
2023/04/06 00:17:02;;;;;;;23.35;18.15;;;;;;;0.38;94.40;101705.97;5035653;28;20030;-56
2023/04/06 00:19:28;;;;;;;23.10;18.75;;;;;;;0.53;92.79;101708.91;5034867;28;20380;-57
2023/04/06 00:21:53;;;;;;;23.02;18.95;;;;;;;0.57;91.19;101704.22;5035305;28;20377;-56
2023/04/06 00:24:18;;;;;;;23.88;19.05;;;;;;;0.69;91.12;101701.81;5035442;28;20029;-57
2023/04/06 00:26:43;;;;;;;23.75;19.33;;;;;;;0.71;90.49;101700.31;5035179;28;20028;-57
2023/04/06 00:29:09;;;;;;;24.23;18.35;;;;;;;0.71;90.00;101697.75;5035344;28;20029;-57
2023/04/06 00:31:34;;;;;;;24.60;17.90;;;;;;;0.79;88.76;101691.66;5035197;28;20934;-57
2023/04/06 00:34:00;;;;;;;24.63;19.35;;;;;;;0.69;89.82;101686.59;5034944;28;20026;-57
2023/04/06 00:36:25;;;;;;;23.15;18.05;;;;;;;0.68;89.10;101679.72;5034684;28;20056;-56
2023/04/06 00:38:50;;;;;;;27.13;18.75;;;;;;;0.71;89.30;101681.63;5035411;28;20033;-57
2023/04/06 00:41:17;;;;;;;23.48;19.33;;;;;;;0.70;91.51;101680.75;5034606;28;20022;-56
2023/04/06 00:43:43;;;;;;;25.30;19.93;;;;;;;0.68;91.05;101672.13;5035235;28;20036;-57
2023/04/06 00:46:08;;;;;;;22.65;17.02;;;;;;;0.96;86.94;101665.13;5035059;28;20284;-57
2023/04/06 00:48:33;;;;;;;20.58;16.35;;;;;;;1.17;84.19;101670.16;5034335;28;20018;-56
2023/04/06 00:50:59;;;;;;;23.58;17.50;;;;;;;1.21;85.46;101666.22;5034732;28;20053;-57
2023/04/06 00:53:24;;;;;;;22.05;17.10;;;;;;;1.31;84.40;101669.63;5034059;28;20028;-57
2023/04/06 00:55:49;;;;;;;19.55;14.93;;;;;;;1.37;81.83;101663.25;5035071;28;20104;-56
2023/04/06 00:58:15;;;;;;;20.70;16.52;;;;;;;1.52;81.05;101663.59;5034814;28;20029;-57
2023/04/06 01:00:41;;;;;;;23.27;16.27;;;;;;;1.58;80.58;101657.34;5034500;28;20021;-57
2023/04/06 01:03:07;;;;;;;23.63;16.08;;;;;;;1.60;79.99;101655.81;5034450;28;20087;-56
2023/04/06 01:05:34;;;;;;;20.90;16.25;;;;;;;1.55;80.83;101652.03;5034330;28;20467;-57
2023/04/06 01:08:00;;;;;;;21.25;15.80;;;;;;;1.62;80.32;101648.31;5034403;28;20034;-57
2023/04/06 01:10:27;;;;;;;20.23;15.82;;;;;;;1.72;78.96;101645.72;5034303;28;20100;-56
2023/04/06 01:12:52;;;;;;;20.83;15.20;;;;;;;1.76;79.25;101639.22;5034862;28;20025;-56
2023/04/06 01:15:19;;;;;;;21.17;16.52;;;;;;;1.66;79.54;101652.00;5033870;28;20021;-56
2023/04/06 01:17:45;;;;;;;21.17;16.25;;;;;;;1.54;80.22;101646.84;5034169;28;20108;-56
2023/04/06 01:20:10;;;;;;;20.35;15.15;;;;;;;1.58;79.57;101642.09;5034549;28;20056;-56
2023/04/06 01:22:35;;;;;;;19.08;16.05;;;;;;;1.61;80.47;101637.28;5033831;28;20056;-56
2023/04/06 01:25:00;;;;;;;23.58;16.08;;;;;;;1.56;81.37;101646.19;5034378;28;20432;-57
2023/04/06 01:27:27;;;;;;;19.67;16.27;;;;;;;1.51;81.12;101637.31;5034262;28;20029;-57
2023/04/06 01:29:53;;;;;;;23.80;16.38;;;;;;;1.43;82.36;101634.19;5033825;28;20017;-57
2023/04/06 01:32:18;;;;;;;21.95;18.00;;;;;;;1.52;83.93;101628.03;5033772;28;20366;-57
2023/04/06 01:34:43;;;;;;;22.90;16.98;;;;;;;1.51;80.93;101632.25;5034211;28;20026;-57
2023/04/06 01:37:09;;;;;;;23.90;18.38;;;;;;;1.48;84.93;101631.97;5033717;28;20029;-57
2023/04/06 01:39:34;;;;;;;20.48;16.42;;;;;;;1.49;81.51;101623.59;5033816;28;20027;-56
2023/04/06 01:41:59;;;;;;;22.25;17.05;;;;;;;1.44;80.41;101629.97;5034263;28;20017;-56
2023/04/06 01:44:25;;;;;;;23.98;17.17;;;;;;;1.46;79.99;101623.38;5033459;28;20485;-57
2023/04/06 01:46:50;;;;;;;21.95;16.70;;;;;;;1.41;80.09;101625.53;5033723;28;20029;-56
2023/04/06 01:49:15;;;;;;;23.85;17.30;;;;;;;1.44;81.19;101614.72;5033550;28;20076;-57
2023/04/06 01:51:41;;;;;;;21.50;17.15;;;;;;;1.47;80.66;101622.56;5033546;28;20067;-56
2023/04/06 01:54:06;;;;;;;23.05;16.88;;;;;;;1.46;81.39;101613.22;5033836;28;20028;-56
2023/04/06 01:56:31;;;;;;;23.83;18.80;;;;;;;1.48;85.10;101604.03;5033670;28;20026;-57
2023/04/06 01:58:56;;;;;;;22.67;17.98;;;;;;;1.52;84.14;101607.72;5033360;28;20391;-57
2023/04/06 02:01:22;;;;;;;24.63;18.52;;;;;;;1.49;85.67;101598.19;5033305;28;20030;-58
2023/04/06 02:03:47;;;;;;;21.48;17.10;;;;;;;1.55;83.53;101597.78;5032636;28;20045;-57
2023/04/06 02:06:13;;;;;;;25.80;17.83;;;;;;;1.68;82.01;101594.53;5033325;28;20034;-56
2023/04/06 02:08:38;;;;;;;26.98;18.90;;;;;;;1.67;81.25;101592.78;5033432;28;20032;-57
2023/04/06 02:11:03;;;;;;;25.73;17.52;;;;;;;1.75;81.03;101589.16;5032941;28;20033;-57
2023/04/06 02:13:29;;;;;;;25.58;17.98;;;;;;;1.83;80.18;101588.09;5033083;28;20029;-56
2023/04/06 02:15:54;;;;;;;25.77;18.63;;;;;;;1.90;79.70;101577.63;5033536;28;20025;-56
2023/04/06 02:18:20;;;;;;;25.35;18.63;;;;;;;1.94;79.51;101579.63;5032659;28;20362;-57
2023/04/06 02:20:46;;;;;;;24.60;18.73;;;;;;;1.97;79.58;101573.91;5033219;28;20022;-57
2023/04/06 02:23:11;;;;;;;27.33;19.33;;;;;;;2.15;79.40;101579.50;5033533;28;20461;-56
2023/04/06 02:25:36;;;;;;;24.90;19.55;;;;;;;2.14;79.16;101572.63;5032647;28;20457;-57
2023/04/06 02:28:02;;;;;;;31.60;20.20;;;;;;;2.19;79.03;101576.41;5033117;28;20029;-57
2023/04/06 02:30:28;;;;;;;27.83;18.98;;;;;;;2.27;77.81;101564.25;5032908;28;20397;-57
2023/04/06 02:32:54;;;;;;;25.65;20.30;;;;;;;2.33;78.70;101568.94;5032571;28;20487;-56
2023/04/06 02:35:20;;;;;;;27.08;19.52;;;;;;;2.42;78.59;101567.06;5032524;28;20133;-57
2023/04/06 02:37:45;;;;;;;25.80;19.73;;;;;;;2.50;77.97;101563.41;5032905;28;20038;-56
2023/04/06 02:40:10;;;;;;;26.10;19.48;;;;;;;2.51;78.04;101565.19;5032806;28;20053;-57
2023/04/06 02:42:36;;;;;;;30.35;20.95;;;;;;;2.55;77.60;101564.66;5032732;28;20033;-57
2023/04/06 02:45:01;;;;;;;27.25;19.40;;;;;;;2.62;77.08;101555.78;5033293;28;20033;-56
2023/04/06 02:47:26;;;;;;;27.20;20.00;;;;;;;2.68;77.01;101547.75;5032137;28;20028;-56
2023/04/06 02:49:52;;;;;;;27.73;20.35;;;;;;;2.70;76.52;101548.72;5032694;28;20033;-57
2023/04/06 02:52:17;;;;;;;29.65;20.63;;;;;;;2.75;76.94;101555.03;5032842;28;20112;-57
2023/04/06 02:54:43;;;;;;;28.25;20.33;;;;;;;2.75;76.75;101548.28;5032536;28;20048;-57
2023/04/06 02:57:08;;;;;;;27.35;21.73;;;;;;;2.73;76.86;101541.31;5032695;28;20029;-57
2023/04/06 02:59:33;;;;;;;28.05;21.33;;;;;;;2.79;76.85;101544.31;5032645;28;20026;-57
2023/04/06 03:01:59;;;;;;;27.15;21.33;;;;;;;2.76;76.83;101537.34;5032114;28;20129;-56
2023/04/06 03:04:25;;;;;;;24.83;20.73;;;;;;;2.74;77.94;101533.78;5032289;28;20397;-57
2023/04/06 03:06:51;;;;;;;26.55;20.38;;;;;;;2.73;77.74;101537.09;5032909;28;20167;-59
2023/04/06 03:09:16;;;;;;;27.50;21.08;;;;;;;2.73;77.76;101533.69;5031849;28;20112;-57
2023/04/06 03:11:41;;;;;;;28.98;22.08;;;;;;;2.74;78.48;101533.78;5032916;28;20059;-56
2023/04/06 03:14:06;;;;;;;28.48;22.63;;;;;;;2.71;80.05;101532.69;5032233;28;20104;-56
2023/04/06 03:16:32;;;;;;;27.85;21.67;;;;;;;2.70;78.39;101534.34;5035409;28;20037;-56
2023/04/06 03:18:57;;;;;;;32.15;23.02;;;;;;;2.73;79.74;101536.22;5036619;28;20044;-56
2023/04/06 03:21:22;;;;;;;29.05;22.55;;;;;;;2.68;80.78;101532.47;5036070;28;20028;-57
2023/04/06 03:23:50;;;;;;;30.05;22.73;;;;;;;2.62;81.08;101531.25;5036570;28;20079;-57
2023/04/06 03:26:16;;;;;;;30.17;23.17;;;;;;;2.66;80.28;101534.00;5036792;28;20036;-56
2023/04/06 03:28:41;;;;;;;27.88;22.27;;;;;;;2.61;80.21;101518.41;5035942;28;20025;-56
2023/04/06 03:31:06;;;;;;;28.50;23.52;;;;;;;2.64;79.76;101522.03;5039654;28;20025;-56
2023/04/06 03:33:32;;;;;;;28.83;22.58;;;;;;;2.66;80.69;101518.72;5056056;28;20024;-56
2023/04/06 03:35:57;;;;;;;30.10;23.80;;;;;;;2.67;80.10;101520.50;5056051;28;20024;-56
2023/04/06 03:38:22;;;;;;;31.60;23.05;;;;;;;2.67;81.10;101517.97;5055757;28;20057;-56
2023/04/06 03:40:48;;;;;;;30.67;23.02;;;;;;;2.67;80.16;101515.41;5056334;28;20044;-56
2023/04/06 03:43:13;;;;;;;29.50;22.55;;;;;;;2.69;80.36;101516.44;5055840;28;20028;-57
2023/04/06 03:45:38;;;;;;;38.55;24.77;;;;;;;2.66;80.39;101519.63;5055619;28;20053;-56
2023/04/06 03:48:05;;;;;;;32.78;24.88;;;;;;;2.61;81.43;101515.88;5056158;28;20032;-56
2023/04/06 03:50:30;;;;;;;32.28;24.50;;;;;;;2.50;80.67;101516.75;5055262;28;20487;-56
2023/04/06 03:52:56;;;;;;;32.45;25.75;;;;;;;2.50;84.00;101517.63;5055957;28;20017;-57
2023/04/06 03:55:21;;;;;;;31.42;26.05;;;;;;;2.45;83.17;101509.66;5055977;28;20025;-56
2023/04/06 03:57:46;;;;;;;35.15;25.83;;;;;;;2.36;83.61;101508.97;5055562;28;20032;-56
2023/04/06 04:00:12;;;;;;;34.83;25.10;;;;;;;2.33;84.71;101508.75;5055888;28;20029;-56
2023/04/06 04:02:38;;;;;;;29.45;24.77;;;;;;;2.33;84.47;101515.53;5055462;28;20519;-57
2023/04/06 04:05:03;;;;;;;32.17;25.00;;;;;;;2.25;83.79;101515.81;5055541;28;20538;-57
2023/04/06 04:07:29;;;;;;;33.17;26.08;;;;;;;2.21;83.39;101513.84;5055186;28;20060;-56
2023/04/06 04:09:54;;;;;;;32.67;25.38;;;;;;;2.23;83.76;101517.34;5055768;28;20017;-56
2023/04/06 04:12:20;;;;;;;29.33;24.92;;;;;;;2.24;83.84;101518.25;5054716;28;20021;-57
2023/04/06 04:14:45;;;;;;;31.65;25.27;;;;;;;2.22;83.74;101515.63;5055740;28;20017;-57
2023/04/06 04:17:10;;;;;;;34.05;25.63;;;;;;;2.23;83.62;101511.41;5055559;28;20036;-56
2023/04/06 04:19:35;;;;;;;31.90;24.52;;;;;;;2.19;83.79;101509.41;5054611;28;20485;-56
2023/04/06 04:22:04;;;;;;;34.33;26.23;;;;;;;2.15;83.68;101510.81;5055729;28;20075;-57
2023/04/06 04:24:29;;;;;;;32.97;24.98;;;;;;;2.23;83.11;101512.28;5054628;28;20067;-57
2023/04/06 04:26:55;;;;;;;33.97;25.20;;;;;;;2.18;83.43;101508.50;5054754;28;20055;-56
2023/04/06 04:29:22;;;;;;;31.45;24.55;;;;;;;2.23;83.72;101507.19;5055175;28;20028;-56
2023/04/06 04:31:47;;;;;;;32.47;25.55;;;;;;;2.24;83.00;101506.41;5054761;28;20021;-57
2023/04/06 04:34:14;;;;;;;32.90;25.08;;;;;;;2.30;82.70;101509.41;5055032;28;20099;-56
2023/04/06 04:36:41;;;;;;;34.17;27.08;;;;;;;2.27;84.73;101516.84;5054962;28;20033;-56
2023/04/06 04:39:07;;;;;;;32.10;25.98;;;;;;;2.29;83.56;101511.84;5054756;28;20021;-56
2023/04/06 04:41:32;;;;;;;34.40;26.27;;;;;;;2.26;83.13;101507.44;5054746;28;20032;-57
2023/04/06 04:43:57;;;;;;;34.50;25.80;;;;;;;2.29;82.87;101506.78;5055137;28;20462;-57
2023/04/06 04:46:22;;;;;;;34.67;27.08;;;;;;;2.30;82.95;101498.38;5054159;28;20040;-57
2023/04/06 04:48:48;;;;;;;32.35;25.92;;;;;;;2.34;82.90;101499.44;5055004;28;20044;-57
2023/04/06 04:51:13;;;;;;;39.40;27.35;;;;;;;2.35;84.54;101501.22;5055189;28;20025;-57
2023/04/06 04:53:38;;;;;;;36.20;26.33;;;;;;;2.35;84.71;101499.59;5053975;28;20017;-57
2023/04/06 04:56:04;;;;;;;37.50;27.05;;;;;;;2.41;83.37;101501.69;5054626;28;20078;-57
2023/04/06 04:58:30;;;;;;;36.50;27.75;;;;;;;2.40;83.61;101497.38;5054674;28;20023;-57
2023/04/06 05:00:55;;;;;;;34.83;26.00;;;;;;;2.43;83.11;101493.41;5054258;28;20100;-57
2023/04/06 05:03:25;;;;;;;36.45;27.33;;;;;;;2.47;84.08;101497.94;5054061;28;20470;-56
2023/04/06 05:05:51;;;;;;;36.15;25.50;;;;;;;2.52;82.85;101498.28;5054943;28;20049;-56
2023/04/06 05:08:16;;;;;;;40.33;25.38;;;;;;;2.57;82.49;101498.59;5054033;28;20495;-56
2023/04/06 05:10:42;;;;;;;32.55;25.17;;;;;;;2.62;81.80;101498.16;5054143;28;20029;-57
2023/04/06 05:13:08;;;;;;;36.92;26.25;;;;;;;2.64;81.94;101500.81;5054590;28;20025;-56
2023/04/06 05:15:34;;;;;;;33.97;25.08;;;;;;;2.63;82.00;101505.03;5053340;28;20499;-57
2023/04/06 05:18:00;;;;;;;31.83;25.63;;;;;;;2.69;81.69;101498.63;5054354;28;20469;-57
2023/04/06 05:20:25;;;;;;;33.80;25.65;;;;;;;2.71;81.78;101497.94;5054369;28;20037;-57
2023/04/06 05:22:51;;;;;;;37.20;26.08;;;;;;;2.77;80.98;101497.50;5053735;28;20029;-57
2023/04/06 05:25:16;;;;;;;33.15;25.65;;;;;;;2.80;81.33;101498.59;5053979;28;20468;-57
2023/04/06 05:27:41;;;;;;;36.30;26.65;;;;;;;2.82;81.17;101498.69;5053896;28;20021;-57
2023/04/06 05:30:08;;;;;;;33.97;25.10;;;;;;;2.86;80.43;101504.91;5054076;28;20017;-57
2023/04/06 05:32:34;;;;;;;34.22;26.55;;;;;;;2.87;80.22;101501.59;5054127;28;20032;-56
2023/04/06 05:34:59;;;;;;;33.65;26.70;;;;;;;2.90;81.11;101495.03;5053527;28;20376;-56
2023/04/06 05:37:25;;;;;;;34.17;25.88;;;;;;;2.93;80.17;101490.16;5053548;28;20036;-56
2023/04/06 05:39:50;;;;;;;31.80;26.92;;;;;;;2.94;79.92;101489.41;5053213;28;20094;-57
2023/04/06 05:42:16;;;;;;;31.02;25.08;;;;;;;2.99;80.17;101491.38;5053439;28;20099;-59
2023/04/06 05:44:41;;;;;;;36.30;25.17;;;;;;;3.02;79.47;101489.94;5053856;28;20045;-57
2023/04/06 05:47:07;;;;;;;34.05;24.63;;;;;;;3.04;79.04;101487.50;5054030;28;20424;-57
2023/04/06 05:49:32;;;;;;;31.98;24.80;;;;;;;3.07;78.92;101488.59;5053258;28;20039;-56
2023/04/06 05:51:57;;;;;;;30.15;23.95;;;;;;;3.11;78.51;101480.41;5053781;28;20027;-56
2023/04/06 05:54:23;;;;;;;30.75;23.92;;;;;;;3.16;77.89;101487.47;5053514;28;20025;-57
2023/04/06 05:56:48;;;;;;;33.67;25.15;;;;;;;3.20;77.94;101487.81;5053101;28;20487;-57
2023/04/06 05:59:13;;;;;;;33.38;24.58;;;;;;;3.24;77.18;101487.22;5053436;28;20061;-57
2023/04/06 06:01:39;;;;;;;34.13;24.85;;;;;;;3.30;77.58;101491.84;5053093;28;20492;-57
2023/04/06 06:04:04;;;;;;;31.10;23.88;;;;;;;3.36;77.47;101492.28;5053298;28;20029;-56
2023/04/06 06:06:32;;;;;;;34.83;24.90;;;;;;;3.40;76.39;101486.63;5053021;28;20094;-56
2023/04/06 06:09:00;;;;;;;32.42;24.08;;;;;;;3.44;76.33;101490.25;5053631;28;20064;-57
2023/04/06 06:11:26;;;;;;;33.30;24.33;;;;;;;3.49;76.57;101483.81;5052654;28;20067;-56
2023/04/06 06:13:51;;;;;;;32.85;24.50;;;;;;;3.52;76.35;101486.56;5053098;28;20056;-56
2023/04/06 06:16:18;;;;;;;33.85;25.08;;;;;;;3.57;76.59;101485.22;5053051;28;20115;-56
2023/04/06 06:18:44;;;;;;;33.42;26.75;;;;;;;3.66;76.12;101497.72;5052413;28;20430;-57
2023/04/06 06:21:11;;;;;;;31.80;25.00;;;;;;;3.73;75.88;101504.09;5053295;28;20468;-57
2023/04/06 06:23:36;;;;;;;33.47;24.00;;;;;;;3.76;75.25;101494.13;5053008;28;20107;-57
2023/04/06 06:26:01;;;;;;;32.97;25.30;;;;;;;3.83;74.57;101492.88;5052572;28;20105;-57
2023/04/06 06:28:27;;;;;;;32.70;24.63;;;;;;;3.92;74.97;101490.94;5053067;28;20029;-57
2023/04/06 06:30:52;;;;;;;33.80;24.27;;;;;;;3.97;74.83;101488.72;5053345;28;20408;-57
2023/04/06 06:33:17;;;;;;;30.63;24.55;;;;;;;4.08;74.28;101488.63;5052023;28;20031;-56
2023/04/06 06:35:43;;;;;;;32.53;24.85;;;;;;;4.19;73.67;101496.97;5053298;28;20044;-56
2023/04/06 06:38:08;;;;;;;37.05;25.15;;;;;;;4.29;73.80;101498.47;5052332;28;20028;-56
2023/04/06 06:40:33;;;;;;;32.65;24.83;;;;;;;4.33;74.11;101499.56;5052534;28;20520;-57
2023/04/06 06:42:59;;;;;;;32.05;24.25;;;;;;;4.41;73.50;101498.38;5052781;28;20024;-57
2023/04/06 06:45:25;;;;;;;37.03;29.25;;;;;;;4.47;72.69;101498.78;5052113;28;20021;-57
2023/04/06 06:47:50;;;;;;;33.85;24.45;;;;;;;4.53;72.55;101498.28;5052766;28;20063;-56
2023/04/06 06:50:16;;;;;;;34.50;25.58;;;;;;;4.51;72.12;101493.09;5052031;28;20583;-57
2023/04/06 06:52:41;;;;;;;31.77;23.30;;;;;;;4.54;71.55;101495.84;5052336;28;20036;-56
2023/04/06 06:55:08;;;;;;;33.22;24.60;;;;;;;4.58;72.33;101492.72;5052623;28;20392;-58
2023/04/06 06:57:33;;;;;;;34.30;25.23;;;;;;;4.64;71.99;101491.34;5052183;28;20040;-55
2023/04/06 06:59:59;;;;;;;31.90;23.98;;;;;;;4.68;72.51;101490.75;5052324;28;20017;-55
2023/04/06 07:02:25;;;;;;;35.72;23.67;;;;;;;4.71;72.34;101479.06;5052075;28;20045;-57
2023/04/06 07:04:50;;;;;;;31.23;24.15;;;;;;;4.78;72.52;101480.34;5052792;28;20056;-57
2023/04/06 07:07:15;;;;;;;31.58;23.67;;;;;;;4.84;71.72;101490.94;5052164;28;20021;-57
2023/04/06 07:09:41;;;;;;;30.73;22.73;;;;;;;4.87;70.83;101488.56;5052193;28;20431;-57
2023/04/06 07:12:06;;;;;;;32.65;23.80;;;;;;;4.92;70.92;101484.63;5052631;28;20013;-57
2023/04/06 07:14:32;;;;;;;36.20;24.48;;;;;;;4.97;71.26;101481.47;5051714;28;20515;-56
2023/04/06 07:16:57;;;;;;;31.38;23.17;;;;;;;4.99;70.26;101479.91;5052180;28;20427;-57
2023/04/06 07:19:22;;;;;;;54.40;39.25;;;;;;;5.08;69.85;101473.69;5052201;28;20029;-57
2023/04/06 07:21:49;;;;;;;40.95;29.67;;;;;;;5.10;69.98;101471.25;5051894;28;20020;-57
2023/04/06 07:24:14;;;;;;;36.88;28.67;;;;;;;5.17;69.78;101470.81;5052515;28;20025;-56
2023/04/06 07:26:40;;;;;;;50.72;38.28;;;;;;;5.21;70.16;101466.78;5052327;28;20096;-56
2023/04/06 07:29:05;;;;;;;43.08;35.42;;;;;;;5.24;69.51;101467.88;5051667;28;20047;-57
2023/04/06 07:31:31;;;;;;;32.90;24.50;;;;;;;5.29;68.91;101470.69;5052398;28;20024;-57
2023/04/06 07:33:56;;;;;;;34.83;23.77;;;;;;;5.34;68.36;101473.53;5052563;28;20086;-57
2023/04/06 07:36:21;;;;;;;35.17;26.10;;;;;;;5.38;68.48;101470.38;5051204;28;21904;-57
2023/04/06 07:38:47;;;;;;;34.88;27.50;;;;;;;5.41;67.72;101468.88;5052382;28;20026;-58
2023/04/06 07:41:12;;;;;;;32.38;22.50;;;;;;;5.47;67.45;101475.16;5052281;28;20091;-57
2023/04/06 07:43:38;;;;;;;31.25;23.05;;;;;;;5.54;68.64;101467.03;5050894;28;20233;-57
2023/04/06 07:46:03;;;;;;;30.25;22.90;;;;;;;5.60;66.54;101468.31;5052346;28;20021;-57
2023/04/06 07:48:28;;;;;;;32.97;23.67;;;;;;;5.66;66.47;101460.13;5051784;28;20029;-57
2023/04/06 07:51:03;;;;;;;30.20;21.88;;;;;;;5.72;67.14;101467.25;5052084;28;20086;-57
2023/04/06 07:53:28;;;;;;;30.52;21.83;;;;;;;5.83;66.21;101468.78;5052053;28;20025;-57
2023/04/06 07:55:55;;;;;;;32.30;23.60;;;;;;;5.84;65.85;101456.91;5051591;28;20507;-57
2023/04/06 07:58:20;;;;;;;31.95;22.42;;;;;;;5.93;65.93;101473.66;5051603;28;20039;-57
2023/04/06 08:00:46;;;;;;;43.42;27.33;;;;;;;5.99;65.43;101472.28;5052264;28;20029;-57
2023/04/06 08:03:11;;;;;;;40.90;29.73;;;;;;;6.01;66.13;101468.13;5053879;28;20049;-57
2023/04/06 08:05:36;;;;;;;53.72;37.13;;;;;;;6.05;65.76;101464.97;5055424;28;20111;-59
2023/04/06 08:08:02;;;;;;;36.35;24.08;;;;;;;6.04;65.24;101468.31;5055764;28;20017;-57
2023/04/06 08:10:27;;;;;;;44.58;29.90;;;;;;;6.05;64.30;101477.75;5055027;28;20092;-57
2023/04/06 08:12:53;;;;;;;46.35;34.58;;;;;;;6.15;65.18;101474.94;5055450;28;20028;-57
2023/04/06 08:15:18;;;;;;;30.52;22.90;;;;;;;6.19;63.37;101471.75;5055558;28;20070;-57
2023/04/06 08:17:43;;;;;;;33.70;25.63;;;;;;;6.20;64.62;101470.09;5055133;28;20421;-57
2023/04/06 08:20:09;;;;;;;31.30;22.50;;;;;;;6.26;64.22;101473.88;5055322;28;20025;-56
2023/04/06 08:22:34;;;;;;;49.85;32.15;;;;;;;6.33;64.27;101474.25;5055158;28;20528;-57
2023/04/06 08:25:00;;;;;;;46.38;32.60;;;;;;;6.39;64.29;101469.44;5054718;28;20025;-57
2023/04/06 08:27:25;;;;;;;41.10;30.63;;;;;;;6.42;63.80;101474.75;5055012;28;20380;-58
2023/04/06 08:29:51;;;;;;;37.95;30.00;;;;;;;6.47;64.39;101478.44;5055615;28;20053;-57
2023/04/06 08:32:16;;;;;;;35.10;23.10;;;;;;;6.48;63.89;101472.53;5054498;28;20096;-57
2023/04/06 08:34:42;;;;;;;34.10;23.00;;;;;;;6.50;64.42;101477.75;5055376;28;20021;-56
2023/04/06 08:37:07;;;;;;;32.55;23.23;;;;;;;6.62;64.93;101483.53;5055287;28;20051;-57
2023/04/06 08:39:33;;;;;;;31.02;24.02;;;;;;;6.58;64.20;101474.81;5054197;28;20380;-57
2023/04/06 08:42:00;;;;;;;35.17;24.33;;;;;;;6.65;64.60;101472.56;5054971;28;20029;-57
2023/04/06 08:44:26;;;;;;;33.10;23.52;;;;;;;6.75;65.72;101479.97;5054831;28;20032;-56
2023/04/06 08:46:52;;;;;;;31.00;22.25;;;;;;;6.85;64.32;101487.38;5054389;28;20431;-56
2023/04/06 08:49:19;;;;;;;29.92;22.73;;;;;;;6.99;64.31;101485.56;5054584;28;20389;-56
2023/04/06 08:51:44;;;;;;;32.20;23.88;;;;;;;6.99;64.81;101474.44;5054261;28;20425;-56
2023/04/06 08:54:09;;;;;;;32.03;22.15;;;;;;;7.02;64.40;101483.19;5054527;28;20048;-56
2023/04/06 08:56:38;;;;;;;33.22;22.80;;;;;;;7.12;64.43;101482.00;5054677;28;20519;-56
2023/04/06 08:59:05;;;;;;;34.17;22.58;;;;;;;7.16;64.90;101483.03;5054429;28;20049;-56
2023/04/06 09:01:33;;;;;;;35.13;22.67;;;;;;;7.38;65.49;101477.38;5054242;28;20025;-56
2023/04/06 09:04:00;;;;;;;33.78;21.20;;;;;;;7.37;64.48;101486.75;5054886;28;20029;-57
2023/04/06 09:06:26;;;;;;;31.05;21.75;;;;;;;7.50;64.88;101485.72;5053749;28;20104;-56
2023/04/06 09:08:52;;;;;;;31.80;22.25;;;;;;;7.47;64.41;101482.97;5054283;28;20427;-57
2023/04/06 09:11:18;;;;;;;31.02;21.60;;;;;;;7.57;65.10;101482.66;5054531;28;20025;-57
2023/04/06 09:13:47;;;;;;;30.73;22.50;;;;;;;7.58;65.41;101487.00;5053991;28;20024;-56
2023/04/06 09:16:12;;;;;;;32.47;23.08;;;;;;;7.67;65.60;101476.31;5054352;28;20025;-56
2023/04/06 09:18:38;;;;;;;33.90;22.58;;;;;;;7.74;65.75;101480.09;5054317;28;20024;-56
2023/04/06 09:21:06;;;;;;;30.40;21.88;;;;;;;7.88;66.26;101483.38;5053953;28;20021;-57
2023/04/06 09:23:31;;;;;;;30.00;21.80;;;;;;;7.92;66.29;101490.41;5053987;28;20064;-56
2023/04/06 09:26:17;;;;;;;32.50;22.95;;;;;;;8.10;67.26;101487.00;5054229;28;20104;-56
2023/04/06 09:28:50;;;;;;;31.38;22.50;;;;;;;8.07;67.59;101490.31;5053680;28;20025;-57
2023/04/06 09:31:21;;;;;;;30.95;21.73;;;;;;;7.94;69.38;101487.91;5054057;28;20033;-56
2023/04/06 09:33:47;;;;;;;33.03;21.42;;;;;;;8.02;69.53;101478.94;5054244;28;20036;-57
2023/04/06 09:36:15;;;;;;;30.85;22.58;;;;;;;8.12;70.06;101487.97;5053144;28;20025;-57
2023/04/06 09:38:58;;;;;;;32.47;22.75;;;;;;;8.13;70.72;101488.03;5054216;28;20094;-57
2023/04/06 09:41:28;;;;;;;30.98;22.15;;;;;;;8.05;72.46;101473.94;5053278;28;20025;-57
2023/04/06 09:44:07;;;;;;;33.95;21.92;;;;;;;7.95;72.61;101482.84;5053813;28;20017;-57
2023/04/06 09:46:43;;;;;;;26.88;21.13;;;;;;;7.87;73.91;101474.75;5053547;28;20021;-57
2023/04/06 09:49:09;;;;;;;28.45;22.08;;;;;;;7.91;78.83;101484.41;5053211;28;20024;-57
2023/04/06 09:51:46;;;;;;;27.85;21.60;;;;;;;8.02;76.67;101477.22;5053345;28;20074;-56
2023/04/06 09:54:15;;;;;;;28.65;20.60;;;;;;;8.02;77.84;101474.66;5053811;28;20035;-57
2023/04/06 09:56:57;;;;;;;28.77;19.42;;;;;;;7.90;75.96;101482.63;5052535;28;20431;-56
2023/04/06 09:59:28;;;;;;;28.08;19.05;;;;;;;7.84;77.63;101482.31;5053530;28;20025;-56
2023/04/06 10:01:58;;;;;;;27.50;20.35;;;;;;;7.77;78.98;101479.34;5053249;28;20072;-56
2023/04/06 10:04:34;;;;;;;26.42;19.40;;;;;;;7.73;79.22;101483.44;5052763;28;20041;-56
2023/04/06 10:07:11;;;;;;;28.35;19.30;;;;;;;7.64;81.56;101481.28;5053568;28;20043;-57
2023/04/06 10:09:37;;;;;;;24.20;18.65;;;;;;;7.49;82.12;101488.19;5052786;28;20465;-57
2023/04/06 10:12:06;;;;;;;24.52;19.00;;;;;;;7.47;85.12;101490.66;5053459;28;20035;-56
2023/04/06 10:14:36;;;;;;;27.33;18.73;;;;;;;7.33;83.54;101492.50;5053105;28;20032;-57
2023/04/06 10:17:03;;;;;;;26.00;18.90;;;;;;;7.32;86.36;101489.84;5052767;28;20116;-56
2023/04/06 10:19:59;;;;;;;25.67;18.42;;;;;;;7.26;86.52;101490.44;5052799;28;20377;-57
2023/04/06 10:22:43;;;;;;;27.20;18.43;;;;;;;7.23;88.59;101491.16;5053177;28;20151;-57
2023/04/06 10:25:09;;;;;;;27.58;18.40;;;;;;;7.25;87.50;101492.09;5052064;28;20029;-57
2023/04/06 10:27:34;;;;;;;23.88;16.55;;;;;;;7.18;87.88;101487.44;5052939;28;20037;-57
2023/04/06 10:30:06;;;;;;;20.13;15.32;;;;;;;7.16;90.64;101496.72;5053152;28;20419;-57
2023/04/06 10:32:33;;;;;;;20.65;15.70;;;;;;;7.16;91.12;101491.59;5052480;28;20037;-57
2023/04/06 10:35:12;;;;;;;22.55;15.73;;;;;;;7.18;93.07;101487.44;5053294;28;20024;-57
2023/04/06 10:38:01;;;;;;;23.27;16.00;;;;;;;7.22;92.88;101489.38;5052311;28;20405;-57
2023/04/06 10:40:27;;;;;;;19.88;14.27;;;;;;;7.19;92.89;101489.22;5052536;28;20100;-57
2023/04/06 10:42:53;;;;;;;20.73;14.00;;;;;;;7.17;94.55;101495.06;5052983;28;20143;-56
2023/04/06 10:45:25;;;;;;;22.08;13.95;;;;;;;7.12;94.26;101487.13;5051946;28;20086;-56
2023/04/06 10:47:55;;;;;;;18.38;13.95;;;;;;;7.14;95.69;101494.88;5052995;28;20074;-55
2023/04/06 10:50:21;;;;;;;18.67;14.50;;;;;;;7.06;94.95;101484.22;5052687;28;20025;-55
2023/04/06 10:52:47;;;;;;;21.67;14.73;;;;;;;6.98;95.26;101476.13;5052062;28;20063;-54
2023/04/06 10:55:14;;;;;;;23.33;15.63;;;;;;;6.92;97.65;101486.06;5052841;28;20429;-51
2023/04/06 10:57:40;;;;;;;22.33;14.45;;;;;;;6.90;98.63;101485.06;5052584;28;20051;-54
2023/04/06 11:00:06;;;;;;;20.92;14.38;;;;;;;6.88;98.79;101476.41;5052308;28;20378;-54
2023/04/06 11:02:32;;;;;;;18.30;14.82;;;;;;;6.85;99.89;101476.25;5052340;28;20056;-54
2023/04/06 11:04:58;;;;;;;19.80;14.70;;;;;;;6.82;100.00;101474.41;5052673;28;20025;-52
2023/04/06 11:07:28;;;;;;;19.05;13.45;;;;;;;6.78;100.00;101467.34;5051737;28;20111;-56
2023/04/06 11:09:53;;;;;;;18.88;13.23;;;;;;;6.79;100.00;101463.09;5052600;28;20028;-55
2023/04/06 11:12:26;;;;;;;15.40;12.00;;;;;;;6.79;100.00;101455.41;5052231;28;20025;-56